createdAt,value
2022-08-17T00:01:17.195Z,7.30
2022-08-17T00:03:48.611Z,8.10
2022-08-17T00:06:18.225Z,6.77
2022-08-17T00:08:47.858Z,6.93
2022-08-17T00:11:17.284Z,7.50
2022-08-17T00:13:47.649Z,6.67
2022-08-17T00:16:19.286Z,6.23
2022-08-17T00:18:58.346Z,7.70
2022-08-17T00:22:01.373Z,7.20
2022-08-17T00:24:21.919Z,7.07
2022-08-17T00:26:48.628Z,12.30
2022-08-17T00:29:20.247Z,8.67
2022-08-17T00:31:48.695Z,7.47
2022-08-17T00:34:15.558Z,7.03
2022-08-17T00:36:42.248Z,5.30
2022-08-17T00:39:08.985Z,6.60
2022-08-17T00:41:35.743Z,6.93
2022-08-17T00:44:04.670Z,6.90
2022-08-17T00:46:33.904Z,7.00
2022-08-17T00:49:02.737Z,7.20
2022-08-17T00:51:34.565Z,6.33
2022-08-17T00:54:07.282Z,7.47
2022-08-17T00:56:38.528Z,6.83
2022-08-17T00:59:06.494Z,5.50
2022-08-17T01:01:33.804Z,6.10
2022-08-17T01:04:02.658Z,5.70
2022-08-17T01:06:29.922Z,9.53
2022-08-17T01:08:58.651Z,6.90
2022-08-17T01:11:25.739Z,7.37
2022-08-17T01:13:52.478Z,6.40
2022-08-17T01:16:23.854Z,8.90
2022-08-17T01:18:54.088Z,6.70
2022-08-17T01:21:27.997Z,5.50
2022-08-17T01:23:56.364Z,7.20
2022-08-17T01:26:23.425Z,8.33
2022-08-17T01:28:53.865Z,5.40
2022-08-17T01:31:24.139Z,6.60
2022-08-17T01:33:50.856Z,7.40
2022-08-17T01:36:17.524Z,5.83
2022-08-17T01:38:44.236Z,7.27
2022-08-17T01:41:15.470Z,6.50
2022-08-17T01:43:45.559Z,5.77
2022-08-17T01:46:16.111Z,7.17
2022-08-17T01:48:42.842Z,6.80
2022-08-17T01:51:09.634Z,6.97
2022-08-17T01:53:41.272Z,5.83
2022-08-17T01:56:10.619Z,8.70
2022-08-17T01:58:40.578Z,6.80
2022-08-17T02:01:08.999Z,8.10
2022-08-17T02:03:37.360Z,9.23
2022-08-17T02:06:06.329Z,7.27
2022-08-17T02:09:01.526Z,6.77
2022-08-17T02:11:32.374Z,6.20
2022-08-17T02:14:03.372Z,6.10
2022-08-17T02:16:37.565Z,9.30
2022-08-17T02:19:06.826Z,6.80
2022-08-17T02:21:33.650Z,7.87
2022-08-17T02:24:00.577Z,6.67
2022-08-17T02:26:27.324Z,7.30
2022-08-17T02:28:54.008Z,6.37
2022-08-17T02:31:22.083Z,10.53
2022-08-17T02:34:00.455Z,8.60
2022-08-17T02:36:31.137Z,8.10
2022-08-17T02:38:57.897Z,6.90
2022-08-17T02:41:24.611Z,5.63
2022-08-17T02:43:51.262Z,6.97
2022-08-17T02:46:17.934Z,6.77
2022-08-17T02:48:45.942Z,11.93
2022-08-17T02:51:12.651Z,8.13
2022-08-17T02:53:39.350Z,8.60
2022-08-17T02:56:06.470Z,9.57
2022-08-17T02:58:35.058Z,11.43
2022-08-17T03:01:04.883Z,8.63
2022-08-17T03:03:31.699Z,8.10
2022-08-17T03:05:59.862Z,7.50
2022-08-17T03:08:27.032Z,7.27
2022-08-17T03:10:53.741Z,9.40
2022-08-17T03:13:20.452Z,8.33
2022-08-17T03:15:48.766Z,10.60
2022-08-17T03:18:24.649Z,10.57
2022-08-17T03:20:52.672Z,7.20
2022-08-17T03:23:23.689Z,7.20
2022-08-17T03:25:53.081Z,8.87
2022-08-17T03:28:20.795Z,12.60
2022-08-17T03:30:47.513Z,8.17
2022-08-17T03:33:14.741Z,6.90
2022-08-17T03:35:41.855Z,7.50
2022-08-17T03:38:09.937Z,9.50
2022-08-17T03:40:56.512Z,9.83
2022-08-17T03:43:26.630Z,10.90
2022-08-17T03:45:53.374Z,10.07
2022-08-17T03:48:20.276Z,9.77
2022-08-17T03:50:47.035Z,8.97
2022-08-17T03:53:16.885Z,10.60
2022-08-17T03:55:44.955Z,12.90
2022-08-17T03:58:11.690Z,12.40
2022-08-17T04:00:39.837Z,9.03
2022-08-17T04:03:06.604Z,10.10
2022-08-17T04:05:35.735Z,10.83
2022-08-17T04:08:02.629Z,10.07
2022-08-17T04:10:33.874Z,11.40
2022-08-17T04:13:06.484Z,13.80
2022-08-17T04:15:33.256Z,8.10
2022-08-17T04:18:00.166Z,8.20
2022-08-17T04:20:28.017Z,11.23
2022-08-17T04:23:00.464Z,12.90
2022-08-17T04:25:28.847Z,11.37
2022-08-17T04:27:56.561Z,11.17
2022-08-17T04:30:25.449Z,18.30
2022-08-17T04:33:04.183Z,15.83
2022-08-17T04:35:39.605Z,15.17
2022-08-17T04:38:07.485Z,10.80
2022-08-17T04:40:34.310Z,12.97
2022-08-17T04:43:02.668Z,11.57
2022-08-17T04:45:32.353Z,12.50
2022-08-17T04:47:59.758Z,20.20
2022-08-17T04:50:26.701Z,13.50
2022-08-17T04:52:53.400Z,11.07
2022-08-17T04:55:20.315Z,11.57
2022-08-17T04:57:47.033Z,11.73
2022-08-17T05:00:14.628Z,11.50
2022-08-17T05:02:49.842Z,10.77
2022-08-17T05:05:19.503Z,13.43
2022-08-17T05:07:47.793Z,14.33
2022-08-17T05:10:14.520Z,16.03
2022-08-17T05:12:41.250Z,24.07
2022-08-17T05:15:11.557Z,17.57
2022-08-17T05:17:38.244Z,18.13
2022-08-17T05:20:07.509Z,22.90
2022-08-17T05:22:34.417Z,21.33
2022-08-17T05:25:01.809Z,17.60
2022-08-17T05:27:35.215Z,21.47
2022-08-17T05:30:02.235Z,20.13
2022-08-17T05:32:37.773Z,18.90
2022-08-17T05:35:09.008Z,22.83
2022-08-17T05:37:35.689Z,18.70
2022-08-17T05:40:02.632Z,22.53
2022-08-17T05:42:29.387Z,27.60
2022-08-17T05:44:57.285Z,19.57
2022-08-17T05:47:26.073Z,20.20
2022-08-17T05:49:53.760Z,19.70
2022-08-17T05:52:32.982Z,18.97
2022-08-17T05:55:10.857Z,18.53
2022-08-17T05:57:53.762Z,19.03
2022-08-17T06:00:30.205Z,18.60
2022-08-17T06:03:12.297Z,16.27
2022-08-17T06:05:53.329Z,18.60
2022-08-17T06:08:30.299Z,15.70
2022-08-17T06:11:02.436Z,14.90
2022-08-17T06:13:44.582Z,15.53
2022-08-17T06:16:32.893Z,19.30
2022-08-17T06:19:06.220Z,19.60
2022-08-17T06:21:38.103Z,20.43
2022-08-17T06:24:14.441Z,22.93
2022-08-17T06:26:43.470Z,21.87
2022-08-17T06:29:19.884Z,18.47
2022-08-17T06:31:46.700Z,19.60
2022-08-17T06:34:13.772Z,19.17
2022-08-17T06:36:53.303Z,19.50
2022-08-17T06:39:33.560Z,22.53
2022-08-17T06:42:10.649Z,21.43
2022-08-17T06:45:02.575Z,22.80
2022-08-17T06:47:34.939Z,15.50
2022-08-17T06:50:07.774Z,19.73
2022-08-17T06:52:46.281Z,17.07
2022-08-17T06:55:20.797Z,19.47
2022-08-17T06:57:51.248Z,17.70
2022-08-17T07:00:21.261Z,24.23
2022-08-17T07:02:53.531Z,12.60
2022-08-17T07:05:24.046Z,17.43
2022-08-17T07:07:59.142Z,22.30
2022-08-17T07:10:29.128Z,20.37
2022-08-17T07:13:02.736Z,13.30
2022-08-17T07:15:40.638Z,17.83
2022-08-17T07:18:07.393Z,16.60
2022-08-17T07:20:34.614Z,15.27
2022-08-17T07:23:12.406Z,13.13
2022-08-17T07:25:40.403Z,11.33
2022-08-17T07:28:07.883Z,12.60
2022-08-17T07:30:46.926Z,12.10
2022-08-17T07:33:17.482Z,9.77
2022-08-17T07:35:45.208Z,11.53
2022-08-17T07:38:26.217Z,14.23
2022-08-17T07:41:02.664Z,11.73
2022-08-17T07:43:31.810Z,12.67
2022-08-17T07:46:03.792Z,9.30
2022-08-17T07:48:36.118Z,10.60
2022-08-17T07:51:15.307Z,11.30
2022-08-17T07:53:42.006Z,8.73
2022-08-17T07:56:10.077Z,13.97
2022-08-17T07:58:36.775Z,7.30
2022-08-17T08:01:06.479Z,8.30
2022-08-17T08:03:33.660Z,7.20
2022-08-17T08:06:02.825Z,7.43
2022-08-17T08:08:33.985Z,8.80
2022-08-17T08:11:07.618Z,10.07
2022-08-17T08:13:37.654Z,7.70
2022-08-17T08:16:28.626Z,7.10
2022-08-17T08:18:57.971Z,10.53
2022-08-17T08:21:35.441Z,7.70
2022-08-17T08:24:38.952Z,7.57
2022-08-17T08:27:14.649Z,8.00
2022-08-17T08:29:50.688Z,6.47
2022-08-17T08:32:20.860Z,8.90
2022-08-17T08:35:01.416Z,8.67
2022-08-17T08:37:43.156Z,7.00
2022-08-17T08:40:27.068Z,6.77
2022-08-17T08:43:02.871Z,7.07
2022-08-17T08:45:42.680Z,7.20
2022-08-17T08:48:22.924Z,9.57
2022-08-17T08:51:13.496Z,10.33
2022-08-17T08:53:49.049Z,13.03
2022-08-17T08:56:23.088Z,8.30
2022-08-17T08:58:59.303Z,13.53
2022-08-17T09:01:34.427Z,8.50
2022-08-17T09:04:27.478Z,5.93
2022-08-17T09:07:08.504Z,7.20
2022-08-17T09:09:46.374Z,7.73
2022-08-17T09:12:21.487Z,7.57
2022-08-17T09:14:55.630Z,7.23
2022-08-17T09:17:34.934Z,7.37
2022-08-17T09:20:10.158Z,7.60
2022-08-17T09:22:43.655Z,7.23
2022-08-17T09:25:13.504Z,8.63
2022-08-17T09:27:52.075Z,6.03
2022-08-17T09:30:20.066Z,5.03
2022-08-17T09:32:50.864Z,4.63
2022-08-17T09:35:20.692Z,8.30
2022-08-17T09:37:56.066Z,7.00
2022-08-17T09:40:26.850Z,5.70
2022-08-17T09:42:59.385Z,10.13
2022-08-17T09:45:35.013Z,10.37
2022-08-17T09:48:09.684Z,5.53
2022-08-17T09:51:01.588Z,5.93
2022-08-17T09:53:31.669Z,6.43
2022-08-17T09:56:23.518Z,4.60
2022-08-17T09:59:13.479Z,4.57
2022-08-17T10:01:46.778Z,5.93
2022-08-17T10:04:32.055Z,6.73
2022-08-17T10:07:03.872Z,5.90
2022-08-17T10:09:41.860Z,4.70
2022-08-17T10:12:22.104Z,8.77
2022-08-17T10:15:13.799Z,7.47
2022-08-17T10:17:49.944Z,7.23
2022-08-17T10:20:23.104Z,5.30
2022-08-17T10:22:54.853Z,7.17
2022-08-17T10:25:27.789Z,4.57
2022-08-17T10:28:05.684Z,4.43
2022-08-17T10:30:44.008Z,4.03
2022-08-17T10:33:17.165Z,5.23
2022-08-17T10:35:51.860Z,4.87
2022-08-17T10:38:32.905Z,7.83
2022-08-17T10:41:05.452Z,4.20
2022-08-17T10:44:36.574Z,6.40
2022-08-17T10:46:57.355Z,5.87
2022-08-17T10:49:31.250Z,7.00
2022-08-17T10:52:00.876Z,4.33
2022-08-17T10:54:46.944Z,4.07
2022-08-17T10:57:37.241Z,3.87
2022-08-17T11:00:15.426Z,6.60
2022-08-17T11:02:52.812Z,7.50
2022-08-17T11:05:49.540Z,4.87
2022-08-17T11:08:31.583Z,4.00
2022-08-17T11:11:13.710Z,8.43
2022-08-17T11:13:49.242Z,4.43
2022-08-17T11:16:41.720Z,4.30
2022-08-17T11:19:37.330Z,4.27
2022-08-17T11:22:40.436Z,4.20
2022-08-17T11:25:16.127Z,9.10
2022-08-17T11:27:44.710Z,6.00
2022-08-17T11:30:33.887Z,3.70
2022-08-17T11:33:20.615Z,8.40
2022-08-17T11:35:55.339Z,4.93
2022-08-17T11:38:30.851Z,4.80
2022-08-17T11:41:14.635Z,4.40
2022-08-17T11:43:58.838Z,4.97
2022-08-17T11:46:38.243Z,5.07
2022-08-17T11:49:15.963Z,4.07
2022-08-17T11:52:13.019Z,3.80
2022-08-17T11:54:43.773Z,4.23
2022-08-17T11:57:53.579Z,9.90
2022-08-17T12:00:58.366Z,4.40
2022-08-17T12:03:54.118Z,4.53
2022-08-17T12:06:43.843Z,5.30
2022-08-17T12:09:16.855Z,8.53
2022-08-17T12:11:55.576Z,5.53
2022-08-17T12:15:08.380Z,7.43
2022-08-17T12:17:40.531Z,6.03
2022-08-17T12:20:14.804Z,8.43
2022-08-17T12:22:48.991Z,5.40
2022-08-17T12:25:21.961Z,4.97
2022-08-17T12:28:05.195Z,4.30
2022-08-17T12:30:35.639Z,4.50
2022-08-17T12:33:02.569Z,4.90
2022-08-17T12:35:33.498Z,5.57
2022-08-17T12:38:01.579Z,4.20
2022-08-17T12:40:31.142Z,6.57
2022-08-17T12:43:00.314Z,5.90
2022-08-17T12:45:29.403Z,4.87
2022-08-17T12:48:07.057Z,6.33
2022-08-17T12:50:34.948Z,9.10
2022-08-17T12:53:02.694Z,4.40
2022-08-17T12:55:35.206Z,4.30
2022-08-17T12:58:02.468Z,4.83
2022-08-17T13:00:31.473Z,5.30
2022-08-17T13:03:01.588Z,4.43
2022-08-17T13:05:32.742Z,5.43
2022-08-17T13:08:00.108Z,5.53
2022-08-17T13:10:32.388Z,4.53
2022-08-17T13:12:59.872Z,4.17
2022-08-17T13:15:30.764Z,4.90
2022-08-17T13:18:03.920Z,4.50
2022-08-17T13:20:32.214Z,5.03
2022-08-17T13:23:03.011Z,6.00
2022-08-17T13:25:30.745Z,6.77
2022-08-17T13:27:57.586Z,4.57
2022-08-17T13:30:26.686Z,4.23
2022-08-17T13:32:54.397Z,5.23
2022-08-17T13:35:39.287Z,5.03
2022-08-17T13:38:09.814Z,4.50
2022-08-17T13:40:40.196Z,4.27
2022-08-17T13:43:07.519Z,5.40
2022-08-17T13:45:43.281Z,4.20
2022-08-17T13:48:18.784Z,4.90
2022-08-17T13:50:48.980Z,4.87
2022-08-17T13:53:18.570Z,4.43
2022-08-17T13:55:49.164Z,4.27
2022-08-17T13:58:21.066Z,6.63
2022-08-17T14:00:47.885Z,6.27
2022-08-17T14:03:14.553Z,4.43
2022-08-17T14:05:41.513Z,4.43
2022-08-17T14:08:12.331Z,5.30
2022-08-17T14:10:39.034Z,4.27
2022-08-17T14:13:06.957Z,4.33
2022-08-17T14:15:56.364Z,4.00
2022-08-17T14:18:35.480Z,4.73
2022-08-17T14:21:08.577Z,3.93
2022-08-17T14:23:37.587Z,5.57
2022-08-17T14:26:04.594Z,4.33
2022-08-17T14:28:31.947Z,4.33
2022-08-17T14:30:59.895Z,3.60
2022-08-17T14:33:27.373Z,4.33
2022-08-17T14:35:54.426Z,4.53
2022-08-17T14:38:21.115Z,4.20
2022-08-17T14:40:49.409Z,3.70
2022-08-17T14:43:16.285Z,5.80
2022-08-17T14:45:43.115Z,4.03
2022-08-17T14:48:10.344Z,4.17
2022-08-17T14:50:39.646Z,6.23
2022-08-17T14:53:08.511Z,3.70
2022-08-17T14:55:36.244Z,8.03
2022-08-17T14:58:04.270Z,4.10
2022-08-17T15:00:31.112Z,3.97
2022-08-17T15:02:59.526Z,3.67
2022-08-17T15:05:30.384Z,4.10
2022-08-17T15:07:57.169Z,3.47
2022-08-17T15:10:25.900Z,3.90
2022-08-17T15:12:52.769Z,4.20
2022-08-17T15:15:20.894Z,4.00
2022-08-17T15:17:47.729Z,4.40
2022-08-17T15:20:17.436Z,3.60
2022-08-17T15:22:45.972Z,4.70
2022-08-17T15:25:13.593Z,4.03
2022-08-17T15:27:41.592Z,5.20
2022-08-17T15:30:09.815Z,7.53
2022-08-17T15:32:41.119Z,4.50
2022-08-17T15:35:18.688Z,4.13
2022-08-17T15:37:45.414Z,6.40
2022-08-17T15:40:13.009Z,9.20
2022-08-17T15:42:39.811Z,14.63
2022-08-17T15:45:08.923Z,3.80
2022-08-17T15:47:37.159Z,3.90
2022-08-17T15:50:04.632Z,4.90
2022-08-17T15:52:31.342Z,5.10
2022-08-17T15:54:59.656Z,6.83
2022-08-17T15:57:27.428Z,4.13
2022-08-17T15:59:58.582Z,3.30
2022-08-17T16:03:45.549Z,5.03
2022-08-17T16:05:19.869Z,5.90
2022-08-17T16:07:46.837Z,4.00
2022-08-17T16:10:18.633Z,8.83
2022-08-17T16:12:46.668Z,7.57
2022-08-17T16:15:14.247Z,4.00
2022-08-17T16:17:41.360Z,7.40
2022-08-17T16:20:09.436Z,5.93
2022-08-17T16:22:50.554Z,4.00
2022-08-17T16:25:20.012Z,3.50
2022-08-17T16:27:49.431Z,4.13
2022-08-17T16:30:17.508Z,5.23
2022-08-17T16:32:46.515Z,4.93
2022-08-17T16:35:14.465Z,6.30
2022-08-17T16:37:41.761Z,3.83
2022-08-17T16:40:15.901Z,4.97
2022-08-17T16:42:44.818Z,6.07
2022-08-17T16:45:14.324Z,3.70
2022-08-17T16:47:41.234Z,3.70
2022-08-17T16:50:10.592Z,3.90
2022-08-17T16:52:39.741Z,3.63
2022-08-17T16:55:08.682Z,3.87
2022-08-17T16:57:37.010Z,3.50
2022-08-17T17:00:16.033Z,5.07
2022-08-17T17:02:44.764Z,4.60
2022-08-17T17:05:22.508Z,7.40
2022-08-17T17:08:03.266Z,4.90
2022-08-17T17:10:37.121Z,4.67
2022-08-17T17:13:07.677Z,6.43
2022-08-17T17:15:45.506Z,4.20
2022-08-17T17:18:13.612Z,4.30
2022-08-17T17:20:52.377Z,5.00
2022-08-17T17:23:37.649Z,4.23
2022-08-17T17:26:17.739Z,6.70
2022-08-17T17:29:02.810Z,5.40
2022-08-17T17:31:39.947Z,4.80
2022-08-17T17:34:10.201Z,5.53
2022-08-17T17:36:40.170Z,4.90
2022-08-17T17:39:11.920Z,4.10
2022-08-17T17:41:43.915Z,4.47
2022-08-17T17:44:15.317Z,5.57
2022-08-17T17:46:50.293Z,5.23
2022-08-17T17:49:18.109Z,4.50
2022-08-17T17:52:10.074Z,7.63
2022-08-17T17:54:48.522Z,6.93
2022-08-17T17:57:22.347Z,4.50
2022-08-17T17:59:58.199Z,5.07
2022-08-17T18:02:37.009Z,5.33
2022-08-17T18:05:19.839Z,7.90
2022-08-17T18:07:52.795Z,11.03
2022-08-17T18:10:30.284Z,15.27
2022-08-17T18:13:09.071Z,6.80
2022-08-17T18:15:44.007Z,9.90
2022-08-17T18:18:41.072Z,6.97
2022-08-17T18:21:11.063Z,8.90
2022-08-17T18:23:46.485Z,11.13
2022-08-17T18:26:13.310Z,5.90
2022-08-17T18:28:41.739Z,6.93
2022-08-17T18:31:15.532Z,6.07
2022-08-17T18:33:45.053Z,5.73
2022-08-17T18:36:13.141Z,5.50
2022-08-17T18:38:42.701Z,10.20
2022-08-17T18:41:19.148Z,6.90
2022-08-17T18:43:59.684Z,7.57
2022-08-17T18:46:30.601Z,6.50
2022-08-17T18:48:59.950Z,6.10
2022-08-17T18:51:40.044Z,5.27
2022-08-17T18:54:18.565Z,5.33
2022-08-17T18:56:50.968Z,8.37
2022-08-17T18:59:31.174Z,7.30
2022-08-17T19:02:45.023Z,6.90
2022-08-17T19:05:12.493Z,5.90
2022-08-17T19:07:42.305Z,5.30
2022-08-17T19:10:21.996Z,7.90
2022-08-17T19:12:55.016Z,6.37
2022-08-17T19:15:32.823Z,5.57
2022-08-17T19:18:05.064Z,5.70
2022-08-17T19:20:36.878Z,5.60
2022-08-17T19:23:11.209Z,6.90
2022-08-17T19:25:42.887Z,5.97
2022-08-17T19:28:22.238Z,6.17
2022-08-17T19:30:50.583Z,6.50
2022-08-17T19:33:18.618Z,5.80
2022-08-17T19:36:03.031Z,5.57
2022-08-17T19:38:42.031Z,8.33
2022-08-17T19:41:16.448Z,13.47
2022-08-17T19:44:04.685Z,6.73
2022-08-17T19:46:39.173Z,6.80
2022-08-17T19:49:14.645Z,6.10
2022-08-17T19:51:47.924Z,8.20
2022-08-17T19:54:22.470Z,6.13
2022-08-17T19:56:56.784Z,5.97
2022-08-17T19:59:38.177Z,11.17
2022-08-17T20:02:19.553Z,7.13
2022-08-17T20:04:50.708Z,12.17
2022-08-17T20:07:22.329Z,9.33
2022-08-17T20:09:54.866Z,7.60
2022-08-17T20:12:25.569Z,7.67
2022-08-17T20:14:56.009Z,9.83
2022-08-17T20:17:24.825Z,9.67
2022-08-17T20:20:03.482Z,9.70
2022-08-17T20:22:49.650Z,8.40
2022-08-17T20:25:30.715Z,7.40
2022-08-17T20:28:05.929Z,7.50
2022-08-17T20:30:37.973Z,10.30
2022-08-17T20:33:06.658Z,8.67
2022-08-17T20:35:37.159Z,10.43
2022-08-17T20:38:06.874Z,11.83
2022-08-17T20:40:36.879Z,11.77
2022-08-17T20:43:38.930Z,7.83
2022-08-17T20:46:23.351Z,8.57
2022-08-17T20:48:53.396Z,9.23
2022-08-17T20:51:29.429Z,9.33
2022-08-17T20:54:03.681Z,8.10
2022-08-17T20:56:48.951Z,8.20
2022-08-17T20:59:49.016Z,8.43
2022-08-17T21:02:21.653Z,9.53
2022-08-17T21:05:07.191Z,11.00
2022-08-17T21:07:56.175Z,9.80
2022-08-17T21:10:37.285Z,8.40
2022-08-17T21:13:37.425Z,14.47
2022-08-17T21:16:20.240Z,9.77
2022-08-17T21:18:57.361Z,10.83
2022-08-17T21:21:33.225Z,8.40
2022-08-17T21:24:19.219Z,10.47
2022-08-17T21:26:53.900Z,8.47
2022-08-17T21:29:30.812Z,13.17
2022-08-17T21:32:19.189Z,9.70
2022-08-17T21:35:43.948Z,8.63
2022-08-17T21:38:17.530Z,9.70
2022-08-17T21:40:49.007Z,8.93
2022-08-17T21:43:24.631Z,6.63
2022-08-17T21:45:58.466Z,9.00
2022-08-17T21:48:27.114Z,10.83
2022-08-17T21:51:06.277Z,7.50
2022-08-17T21:53:38.752Z,7.67
2022-08-17T21:56:07.942Z,12.07
2022-08-17T21:58:37.364Z,15.90
2022-08-17T22:01:18.108Z,9.10
2022-08-17T22:03:46.800Z,9.00
2022-08-17T22:06:22.771Z,8.17
2022-08-17T22:09:01.635Z,13.10
2022-08-17T22:11:29.760Z,8.43
2022-08-17T22:14:05.496Z,9.57
2022-08-17T22:16:32.807Z,12.50
2022-08-17T22:18:59.622Z,7.40
2022-08-17T22:21:26.645Z,10.90
2022-08-17T22:24:02.277Z,16.13
2022-08-17T22:27:00.428Z,7.70
2022-08-17T22:29:53.139Z,9.43
2022-08-17T22:32:35.141Z,8.83
2022-08-17T22:35:34.812Z,11.73
2022-08-17T22:38:28.323Z,10.60
2022-08-17T22:41:12.563Z,7.77
2022-08-17T22:43:43.716Z,6.93
2022-08-17T22:46:12.132Z,12.13
2022-08-17T22:48:47.491Z,8.17
2022-08-17T22:51:18.643Z,10.23
2022-08-17T22:53:47.268Z,8.10
2022-08-17T22:56:17.116Z,12.37
2022-08-17T22:58:58.975Z,8.03
2022-08-17T23:01:28.883Z,8.00
2022-08-17T23:03:57.313Z,11.60
2022-08-17T23:06:24.217Z,7.50
2022-08-17T23:08:52.610Z,9.30
2022-08-17T23:11:19.295Z,8.80
2022-08-17T23:14:04.606Z,7.97
2022-08-17T23:16:31.305Z,6.70
2022-08-17T23:18:58.016Z,9.27
2022-08-17T23:21:27.591Z,8.00
2022-08-17T23:23:54.335Z,18.90
2022-08-17T23:26:22.013Z,13.37
2022-08-17T23:28:48.792Z,20.93
2022-08-17T23:31:18.690Z,10.20
2022-08-17T23:33:50.225Z,18.80
2022-08-17T23:36:17.181Z,9.80
2022-08-17T23:38:44.849Z,10.40
2022-08-17T23:41:14.804Z,8.77
2022-08-17T23:43:44.094Z,8.17
2022-08-17T23:46:10.881Z,8.93
2022-08-17T23:48:39.236Z,8.67
2022-08-17T23:51:09.003Z,8.40
2022-08-17T23:53:37.878Z,9.93
2022-08-17T23:56:10.403Z,8.50
2022-08-17T23:58:38.589Z,8.67
